KBAD

Barksdale AFB Airport

Bossier City, Louisiana, USA
TAF KBAD 221000Z 2210/2316 VRB06KT 9999 BKN050 QNH2993INS BECMG 2212/2213 10009KT 8000 -SHRA BKN030 QNH2994INS TEMPO 2219/2224 VRB12G18KT 4800 -TSRA BKN020CB BECMG 2223/2224 13006KT 9999 NSW SCT020 QNH2999INS BECMG 2304/2305 VRB06KT 8000 BR BKN015 QNH2992INS TX27/2219Z TN21/2212Z
Issued Valid From Valid To
Sep-22 @ 10:00 UTC
(5 hours ago)
Sep-22 @ 10:00 UTC
(5 hours ago)
Sep-23 @ 16:00 UTC
(-1 days ago)
to
to
to
to
to
TAF KBAD 221000Z 2210/2316 VRB06KT 9999 BKN050 QNH2993INS BECMG 2212/2213 10009KT 8000 -SHRA BKN030 QNH2994INS TEMPO 2219/2224 VRB12G18KT 4800 -TSRA BKN020CB BECMG 2223/2224 13006KT 9999 NSW SCT020 QNH2999INS BECMG 2304/2305 VRB06KT 8000 BR BKN015 QNH2992INS TX27/2219Z TN21/2212Z
Issued Sep-22 @ 10:00 UTC
(5 hours ago)
Valid From Sep-22 @ 10:00 UTC
(5 hours ago)
Valid To Sep-23 @ 16:00 UTC
(-1 days ago)
-
-
-
-
-